sensor_id;sensor_type;location;lat;lon;timestamp;temperature;humidity
20977;DHT22;10647;51.016;3.720;2023-07-02T00:02:21;18.70;99.90
20977;DHT22;10647;51.016;3.720;2023-07-02T00:04:49;18.80;99.90
20977;DHT22;10647;51.016;3.720;2023-07-02T00:07:17;18.90;99.90
20977;DHT22;10647;51.016;3.720;2023-07-02T00:09:44;18.50;99.90
20977;DHT22;10647;51.016;3.720;2023-07-02T00:12:14;18.50;99.90
20977;DHT22;10647;51.016;3.720;2023-07-02T00:14:42;18.20;99.90
20977;DHT22;10647;51.016;3.720;2023-07-02T00:17:10;18.40;99.90
20977;DHT22;10647;51.016;3.720;2023-07-02T00:19:40;18.50;99.90
20977;DHT22;10647;51.016;3.720;2023-07-02T00:22:09;18.30;99.90
20977;DHT22;10647;51.016;3.720;2023-07-02T00:24:37;18.30;99.90
20977;DHT22;10647;51.016;3.720;2023-07-02T00:27:04;18.40;99.90
20977;DHT22;10647;51.016;3.720;2023-07-02T00:29:32;18.20;99.90
20977;DHT22;10647;51.016;3.720;2023-07-02T00:31:59;18.20;99.90
20977;DHT22;10647;51.016;3.720;2023-07-02T00:34:27;18.20;99.90
20977;DHT22;10647;51.016;3.720;2023-07-02T00:36:54;18.20;99.90
20977;DHT22;10647;51.016;3.720;2023-07-02T00:39:22;18.40;99.90
20977;DHT22;10647;51.016;3.720;2023-07-02T00:41:49;18.20;99.90
20977;DHT22;10647;51.016;3.720;2023-07-02T00:44:17;17.90;99.90
20977;DHT22;10647;51.016;3.720;2023-07-02T00:46:44;17.80;99.90
20977;DHT22;10647;51.016;3.720;2023-07-02T00:49:12;18.10;99.90
20977;DHT22;10647;51.016;3.720;2023-07-02T00:51:39;18.10;99.90
20977;DHT22;10647;51.016;3.720;2023-07-02T00:54:07;17.80;99.90
20977;DHT22;10647;51.016;3.720;2023-07-02T00:56:35;18.00;99.90
20977;DHT22;10647;51.016;3.720;2023-07-02T00:59:03;17.80;99.90
20977;DHT22;10647;51.016;3.720;2023-07-02T01:01:31;17.80;99.90
20977;DHT22;10647;51.016;3.720;2023-07-02T01:04:02;17.70;99.90
20977;DHT22;10647;51.016;3.720;2023-07-02T01:06:34;17.60;99.90
20977;DHT22;10647;51.016;3.720;2023-07-02T01:09:04;17.60;99.90
20977;DHT22;10647;51.016;3.720;2023-07-02T01:11:34;17.90;99.90
20977;DHT22;10647;51.016;3.720;2023-07-02T01:14:14;17.80;99.90
20977;DHT22;10647;51.016;3.720;2023-07-02T01:16:43;17.60;99.90
20977;DHT22;10647;51.016;3.720;2023-07-02T01:19:14;17.60;99.90
20977;DHT22;10647;51.016;3.720;2023-07-02T01:21:41;17.80;99.90
20977;DHT22;10647;51.016;3.720;2023-07-02T01:24:09;17.80;99.90
20977;DHT22;10647;51.016;3.720;2023-07-02T01:26:36;17.90;99.90
20977;DHT22;10647;51.016;3.720;2023-07-02T01:29:17;17.80;99.90
20977;DHT22;10647;51.016;3.720;2023-07-02T01:31:47;17.90;99.90
20977;DHT22;10647;51.016;3.720;2023-07-02T01:34:14;18.00;99.90
20977;DHT22;10647;51.016;3.720;2023-07-02T01:36:42;17.80;99.90
20977;DHT22;10647;51.016;3.720;2023-07-02T01:39:10;17.70;99.90
20977;DHT22;10647;51.016;3.720;2023-07-02T01:41:44;17.80;99.90
20977;DHT22;10647;51.016;3.720;2023-07-02T01:44:11;18.00;99.90
20977;DHT22;10647;51.016;3.720;2023-07-02T01:46:38;17.90;99.90
20977;DHT22;10647;51.016;3.720;2023-07-02T01:49:06;17.90;99.90
20977;DHT22;10647;51.016;3.720;2023-07-02T01:51:37;18.00;99.90
20977;DHT22;10647;51.016;3.720;2023-07-02T01:54:05;18.10;99.90
20977;DHT22;10647;51.016;3.720;2023-07-02T01:56:32;18.10;99.90
20977;DHT22;10647;51.016;3.720;2023-07-02T01:59:00;17.90;99.90
20977;DHT22;10647;51.016;3.720;2023-07-02T02:01:27;17.90;99.90
20977;DHT22;10647;51.016;3.720;2023-07-02T02:03:55;17.90;99.90
20977;DHT22;10647;51.016;3.720;2023-07-02T02:06:23;17.80;99.90
20977;DHT22;10647;51.016;3.720;2023-07-02T02:08:50;17.40;99.90
20977;DHT22;10647;51.016;3.720;2023-07-02T02:11:18;17.50;99.90
20977;DHT22;10647;51.016;3.720;2023-07-02T02:13:45;17.70;99.90
20977;DHT22;10647;51.016;3.720;2023-07-02T02:16:13;17.60;99.90
20977;DHT22;10647;51.016;3.720;2023-07-02T02:18:40;17.50;99.90
20977;DHT22;10647;51.016;3.720;2023-07-02T02:21:08;17.50;99.90
20977;DHT22;10647;51.016;3.720;2023-07-02T02:23:35;17.40;99.90
20977;DHT22;10647;51.016;3.720;2023-07-02T02:26:03;17.50;99.90
20977;DHT22;10647;51.016;3.720;2023-07-02T02:28:30;17.30;99.90
20977;DHT22;10647;51.016;3.720;2023-07-02T02:30:58;17.60;99.90
20977;DHT22;10647;51.016;3.720;2023-07-02T02:33:25;17.70;99.90
20977;DHT22;10647;51.016;3.720;2023-07-02T02:35:59;17.70;99.90
20977;DHT22;10647;51.016;3.720;2023-07-02T02:38:32;17.60;99.90
20977;DHT22;10647;51.016;3.720;2023-07-02T02:41:00;17.90;99.90
20977;DHT22;10647;51.016;3.720;2023-07-02T02:43:34;18.00;99.90
20977;DHT22;10647;51.016;3.720;2023-07-02T02:46:02;18.10;99.90
20977;DHT22;10647;51.016;3.720;2023-07-02T02:48:29;18.20;99.90
20977;DHT22;10647;51.016;3.720;2023-07-02T02:50:57;18.10;99.90
20977;DHT22;10647;51.016;3.720;2023-07-02T02:53:25;17.90;99.90
20977;DHT22;10647;51.016;3.720;2023-07-02T02:55:59;17.70;99.90
20977;DHT22;10647;51.016;3.720;2023-07-02T02:58:26;17.90;99.90
20977;DHT22;10647;51.016;3.720;2023-07-02T03:00:54;17.50;99.90
20977;DHT22;10647;51.016;3.720;2023-07-02T03:03:22;17.60;99.90
20977;DHT22;10647;51.016;3.720;2023-07-02T03:05:51;17.80;99.90
20977;DHT22;10647;51.016;3.720;2023-07-02T03:08:24;17.60;99.90
20977;DHT22;10647;51.016;3.720;2023-07-02T03:10:55;17.70;99.90
20977;DHT22;10647;51.016;3.720;2023-07-02T03:13:22;17.30;99.90
20977;DHT22;10647;51.016;3.720;2023-07-02T03:15:50;17.60;99.90
20977;DHT22;10647;51.016;3.720;2023-07-02T03:18:17;17.70;99.90
20977;DHT22;10647;51.016;3.720;2023-07-02T03:20:45;17.70;99.90
20977;DHT22;10647;51.016;3.720;2023-07-02T03:23:12;17.70;99.90
20977;DHT22;10647;51.016;3.720;2023-07-02T03:25:40;17.80;99.90
20977;DHT22;10647;51.016;3.720;2023-07-02T03:28:07;17.80;99.90
20977;DHT22;10647;51.016;3.720;2023-07-02T03:30:35;17.80;99.90
20977;DHT22;10647;51.016;3.720;2023-07-02T03:33:09;17.90;99.90
20977;DHT22;10647;51.016;3.720;2023-07-02T03:35:36;17.90;99.90
20977;DHT22;10647;51.016;3.720;2023-07-02T03:38:05;17.90;99.90
20977;DHT22;10647;51.016;3.720;2023-07-02T03:40:35;18.10;99.90
20977;DHT22;10647;51.016;3.720;2023-07-02T03:43:04;17.90;99.90
20977;DHT22;10647;51.016;3.720;2023-07-02T03:45:32;17.30;99.90
20977;DHT22;10647;51.016;3.720;2023-07-02T03:48:02;17.30;99.90
20977;DHT22;10647;51.016;3.720;2023-07-02T03:50:30;17.50;99.90
20977;DHT22;10647;51.016;3.720;2023-07-02T03:52:57;17.80;99.90
20977;DHT22;10647;51.016;3.720;2023-07-02T03:55:25;17.70;99.90
20977;DHT22;10647;51.016;3.720;2023-07-02T03:57:53;17.90;99.90
20977;DHT22;10647;51.016;3.720;2023-07-02T04:00:20;18.00;99.90
20977;DHT22;10647;51.016;3.720;2023-07-02T04:02:48;18.00;99.90
20977;DHT22;10647;51.016;3.720;2023-07-02T04:05:15;18.00;99.90
20977;DHT22;10647;51.016;3.720;2023-07-02T04:07:43;18.00;99.90
20977;DHT22;10647;51.016;3.720;2023-07-02T04:10:10;18.10;99.90
20977;DHT22;10647;51.016;3.720;2023-07-02T04:12:38;18.00;99.90
20977;DHT22;10647;51.016;3.720;2023-07-02T04:15:06;18.00;99.90
20977;DHT22;10647;51.016;3.720;2023-07-02T04:17:34;18.00;99.90
20977;DHT22;10647;51.016;3.720;2023-07-02T04:20:04;17.70;99.90
20977;DHT22;10647;51.016;3.720;2023-07-02T04:22:36;17.70;99.90
20977;DHT22;10647;51.016;3.720;2023-07-02T04:25:05;17.60;99.90
20977;DHT22;10647;51.016;3.720;2023-07-02T04:27:42;17.70;99.90
20977;DHT22;10647;51.016;3.720;2023-07-02T04:30:12;17.60;99.90
20977;DHT22;10647;51.016;3.720;2023-07-02T04:32:43;17.90;99.90
20977;DHT22;10647;51.016;3.720;2023-07-02T04:35:11;17.90;99.90
20977;DHT22;10647;51.016;3.720;2023-07-02T04:37:45;18.00;99.90
20977;DHT22;10647;51.016;3.720;2023-07-02T04:40:12;18.10;99.90
20977;DHT22;10647;51.016;3.720;2023-07-02T04:42:43;18.20;99.90
20977;DHT22;10647;51.016;3.720;2023-07-02T04:45:15;18.30;99.90
20977;DHT22;10647;51.016;3.720;2023-07-02T04:47:43;18.50;99.90
20977;DHT22;10647;51.016;3.720;2023-07-02T04:50:11;18.30;99.90
20977;DHT22;10647;51.016;3.720;2023-07-02T04:52:39;18.20;99.90
20977;DHT22;10647;51.016;3.720;2023-07-02T04:55:06;18.10;99.90
20977;DHT22;10647;51.016;3.720;2023-07-02T04:57:34;18.10;99.90
20977;DHT22;10647;51.016;3.720;2023-07-02T05:00:02;17.80;99.90
20977;DHT22;10647;51.016;3.720;2023-07-02T05:02:30;18.30;99.90
20977;DHT22;10647;51.016;3.720;2023-07-02T05:04:58;18.50;99.90
20977;DHT22;10647;51.016;3.720;2023-07-02T05:07:25;18.50;99.90
20977;DHT22;10647;51.016;3.720;2023-07-02T05:09:53;18.60;99.90
20977;DHT22;10647;51.016;3.720;2023-07-02T05:12:20;18.90;99.90
20977;DHT22;10647;51.016;3.720;2023-07-02T05:14:54;19.10;99.90
20977;DHT22;10647;51.016;3.720;2023-07-02T05:17:25;19.20;99.90
20977;DHT22;10647;51.016;3.720;2023-07-02T05:19:53;19.40;99.90
20977;DHT22;10647;51.016;3.720;2023-07-02T05:22:20;19.40;99.90
20977;DHT22;10647;51.016;3.720;2023-07-02T05:24:48;18.90;99.90
20977;DHT22;10647;51.016;3.720;2023-07-02T05:27:22;18.70;99.90
20977;DHT22;10647;51.016;3.720;2023-07-02T05:29:52;18.80;99.90
20977;DHT22;10647;51.016;3.720;2023-07-02T05:32:19;18.40;99.90
20977;DHT22;10647;51.016;3.720;2023-07-02T05:34:50;18.80;99.90
20977;DHT22;10647;51.016;3.720;2023-07-02T05:37:17;19.30;99.90
20977;DHT22;10647;51.016;3.720;2023-07-02T05:39:47;19.30;99.90
20977;DHT22;10647;51.016;3.720;2023-07-02T05:42:15;19.10;99.90
20977;DHT22;10647;51.016;3.720;2023-07-02T05:44:53;19.30;99.90
20977;DHT22;10647;51.016;3.720;2023-07-02T05:47:20;19.80;99.90
20977;DHT22;10647;51.016;3.720;2023-07-02T05:50:01;19.80;99.90
20977;DHT22;10647;51.016;3.720;2023-07-02T05:52:28;20.00;99.90
20977;DHT22;10647;51.016;3.720;2023-07-02T05:54:57;20.30;99.90
20977;DHT22;10647;51.016;3.720;2023-07-02T05:57:32;20.30;99.90
20977;DHT22;10647;51.016;3.720;2023-07-02T06:00:06;20.70;99.90
20977;DHT22;10647;51.016;3.720;2023-07-02T06:02:40;20.90;99.90
20977;DHT22;10647;51.016;3.720;2023-07-02T06:05:13;20.70;99.90
20977;DHT22;10647;51.016;3.720;2023-07-02T06:07:48;20.60;99.90
20977;DHT22;10647;51.016;3.720;2023-07-02T06:10:35;20.80;99.90
20977;DHT22;10647;51.016;3.720;2023-07-02T06:13:02;20.50;99.90
20977;DHT22;10647;51.016;3.720;2023-07-02T06:15:32;20.70;99.90
20977;DHT22;10647;51.016;3.720;2023-07-02T06:18:00;20.90;99.90
20977;DHT22;10647;51.016;3.720;2023-07-02T06:20:27;21.00;99.90
20977;DHT22;10647;51.016;3.720;2023-07-02T06:22:57;21.00;99.90
20977;DHT22;10647;51.016;3.720;2023-07-02T06:25:26;20.90;99.90
20977;DHT22;10647;51.016;3.720;2023-07-02T06:27:53;20.90;99.90
20977;DHT22;10647;51.016;3.720;2023-07-02T06:30:25;21.10;99.90
20977;DHT22;10647;51.016;3.720;2023-07-02T06:32:54;21.60;99.90
20977;DHT22;10647;51.016;3.720;2023-07-02T06:35:24;21.30;99.90
20977;DHT22;10647;51.016;3.720;2023-07-02T06:37:52;21.60;99.90
20977;DHT22;10647;51.016;3.720;2023-07-02T06:40:20;21.80;99.90
20977;DHT22;10647;51.016;3.720;2023-07-02T06:42:50;21.60;99.90
20977;DHT22;10647;51.016;3.720;2023-07-02T06:45:18;21.90;98.30
20977;DHT22;10647;51.016;3.720;2023-07-02T06:47:45;22.00;98.10
20977;DHT22;10647;51.016;3.720;2023-07-02T06:50:13;22.00;98.70
20977;DHT22;10647;51.016;3.720;2023-07-02T06:52:40;22.20;97.70
20977;DHT22;10647;51.016;3.720;2023-07-02T06:55:08;22.50;97.70
20977;DHT22;10647;51.016;3.720;2023-07-02T06:57:44;22.50;97.00
20977;DHT22;10647;51.016;3.720;2023-07-02T07:00:13;21.90;97.40
20977;DHT22;10647;51.016;3.720;2023-07-02T07:02:42;21.80;98.40
20977;DHT22;10647;51.016;3.720;2023-07-02T07:05:10;22.30;97.40
20977;DHT22;10647;51.016;3.720;2023-07-02T07:07:39;22.70;96.50
20977;DHT22;10647;51.016;3.720;2023-07-02T07:10:07;22.00;96.60
20977;DHT22;10647;51.016;3.720;2023-07-02T07:12:35;21.60;96.60
20977;DHT22;10647;51.016;3.720;2023-07-02T07:15:06;22.50;95.00
20977;DHT22;10647;51.016;3.720;2023-07-02T07:17:38;22.20;95.00
20977;DHT22;10647;51.016;3.720;2023-07-02T07:20:06;22.70;94.70
20977;DHT22;10647;51.016;3.720;2023-07-02T07:22:37;23.00;94.70
20977;DHT22;10647;51.016;3.720;2023-07-02T07:28:32;22.40;94.50
20977;DHT22;10647;51.016;3.720;2023-07-02T07:31:05;22.50;94.80
20977;DHT22;10647;51.016;3.720;2023-07-02T07:33:33;23.20;93.90
20977;DHT22;10647;51.016;3.720;2023-07-02T07:36:00;22.60;93.90
20977;DHT22;10647;51.016;3.720;2023-07-02T07:38:28;23.40;93.70
20977;DHT22;10647;51.016;3.720;2023-07-02T07:40:55;23.80;92.70
20977;DHT22;10647;51.016;3.720;2023-07-02T07:43:23;24.10;91.10
20977;DHT22;10647;51.016;3.720;2023-07-02T07:46:10;24.00;90.80
20977;DHT22;10647;51.016;3.720;2023-07-02T07:48:37;23.30;91.50
20977;DHT22;10647;51.016;3.720;2023-07-02T07:51:07;23.40;91.90
20977;DHT22;10647;51.016;3.720;2023-07-02T07:53:39;23.90;91.50
20977;DHT22;10647;51.016;3.720;2023-07-02T07:56:09;24.10;91.20
20977;DHT22;10647;51.016;3.720;2023-07-02T07:58:37;23.90;91.00
20977;DHT22;10647;51.016;3.720;2023-07-02T08:01:05;24.00;90.40
20977;DHT22;10647;51.016;3.720;2023-07-02T08:03:39;23.70;90.70
20977;DHT22;10647;51.016;3.720;2023-07-02T08:06:08;23.70;90.80
20977;DHT22;10647;51.016;3.720;2023-07-02T08:08:36;23.60;91.50
20977;DHT22;10647;51.016;3.720;2023-07-02T08:11:04;23.20;92.10
20977;DHT22;10647;51.016;3.720;2023-07-02T08:13:31;23.60;92.00
20977;DHT22;10647;51.016;3.720;2023-07-02T08:15:59;22.90;92.40
20977;DHT22;10647;51.016;3.720;2023-07-02T08:18:32;23.10;92.60
20977;DHT22;10647;51.016;3.720;2023-07-02T08:21:00;22.90;92.70
20977;DHT22;10647;51.016;3.720;2023-07-02T08:23:29;22.90;93.10
20977;DHT22;10647;51.016;3.720;2023-07-02T08:26:03;23.20;93.00
20977;DHT22;10647;51.016;3.720;2023-07-02T08:28:31;23.20;93.10
20977;DHT22;10647;51.016;3.720;2023-07-02T08:31:00;23.50;93.00
20977;DHT22;10647;51.016;3.720;2023-07-02T08:33:27;23.20;92.50
20977;DHT22;10647;51.016;3.720;2023-07-02T08:35:57;22.90;91.50
20977;DHT22;10647;51.016;3.720;2023-07-02T08:38:24;23.70;91.70
20977;DHT22;10647;51.016;3.720;2023-07-02T08:40:52;24.20;90.50
20977;DHT22;10647;51.016;3.720;2023-07-02T08:43:22;24.10;89.30
20977;DHT22;10647;51.016;3.720;2023-07-02T08:45:52;23.90;90.40
20977;DHT22;10647;51.016;3.720;2023-07-02T08:48:20;24.00;90.50
20977;DHT22;10647;51.016;3.720;2023-07-02T08:50:50;24.70;88.70
20977;DHT22;10647;51.016;3.720;2023-07-02T08:53:17;24.90;88.40
20977;DHT22;10647;51.016;3.720;2023-07-02T08:55:45;24.60;86.70
20977;DHT22;10647;51.016;3.720;2023-07-02T08:58:14;24.40;88.60
20977;DHT22;10647;51.016;3.720;2023-07-02T09:01:05;23.90;89.60
20977;DHT22;10647;51.016;3.720;2023-07-02T09:03:34;23.90;87.50
20977;DHT22;10647;51.016;3.720;2023-07-02T09:06:06;24.40;87.00
20977;DHT22;10647;51.016;3.720;2023-07-02T09:08:35;24.80;86.00
20977;DHT22;10647;51.016;3.720;2023-07-02T09:11:18;23.30;87.10
20977;DHT22;10647;51.016;3.720;2023-07-02T09:13:51;23.90;85.80
20977;DHT22;10647;51.016;3.720;2023-07-02T09:16:28;23.70;86.60
20977;DHT22;10647;51.016;3.720;2023-07-02T09:21:48;23.20;87.50
20977;DHT22;10647;51.016;3.720;2023-07-02T09:26:50;23.90;87.40
20977;DHT22;10647;51.016;3.720;2023-07-02T09:29:24;23.90;86.70
20977;DHT22;10647;51.016;3.720;2023-07-02T09:31:54;24.60;86.20
20977;DHT22;10647;51.016;3.720;2023-07-02T09:34:28;24.80;86.00
20977;DHT22;10647;51.016;3.720;2023-07-02T09:36:56;24.60;84.70
20977;DHT22;10647;51.016;3.720;2023-07-02T09:39:29;24.30;84.30
20977;DHT22;10647;51.016;3.720;2023-07-02T09:42:00;23.70;86.00
20977;DHT22;10647;51.016;3.720;2023-07-02T09:44:32;24.20;85.10
20977;DHT22;10647;51.016;3.720;2023-07-02T09:47:07;25.00;83.60
20977;DHT22;10647;51.016;3.720;2023-07-02T09:49:36;25.60;80.90
20977;DHT22;10647;51.016;3.720;2023-07-02T09:52:07;25.60;80.60
20977;DHT22;10647;51.016;3.720;2023-07-02T09:54:36;25.30;79.90
20977;DHT22;10647;51.016;3.720;2023-07-02T09:57:05;24.20;78.10
20977;DHT22;10647;51.016;3.720;2023-07-02T09:59:40;23.50;80.70
20977;DHT22;10647;51.016;3.720;2023-07-02T10:02:12;23.60;80.00
20977;DHT22;10647;51.016;3.720;2023-07-02T10:04:45;23.90;77.80
20977;DHT22;10647;51.016;3.720;2023-07-02T10:07:26;24.60;74.80
20977;DHT22;10647;51.016;3.720;2023-07-02T10:09:54;24.00;74.40
20977;DHT22;10647;51.016;3.720;2023-07-02T10:12:25;23.40;76.20
20977;DHT22;10647;51.016;3.720;2023-07-02T10:14:56;23.30;76.10
20977;DHT22;10647;51.016;3.720;2023-07-02T10:17:26;22.90;75.70
20977;DHT22;10647;51.016;3.720;2023-07-02T10:19:56;23.30;77.10
20977;DHT22;10647;51.016;3.720;2023-07-02T10:22:26;23.60;76.70
20977;DHT22;10647;51.016;3.720;2023-07-02T10:24:57;24.20;74.90
20977;DHT22;10647;51.016;3.720;2023-07-02T10:27:39;24.60;72.70
20977;DHT22;10647;51.016;3.720;2023-07-02T10:30:09;25.00;72.90
20977;DHT22;10647;51.016;3.720;2023-07-02T10:32:38;24.90;72.50
20977;DHT22;10647;51.016;3.720;2023-07-02T10:35:15;25.50;71.80
20977;DHT22;10647;51.016;3.720;2023-07-02T10:37:43;25.40;72.60
20977;DHT22;10647;51.016;3.720;2023-07-02T10:40:13;23.70;74.80
20977;DHT22;10647;51.016;3.720;2023-07-02T10:42:49;23.30;75.90
20977;DHT22;10647;51.016;3.720;2023-07-02T10:45:17;24.20;72.70
20977;DHT22;10647;51.016;3.720;2023-07-02T10:47:45;24.40;71.90
20977;DHT22;10647;51.016;3.720;2023-07-02T10:50:27;23.90;72.90
20977;DHT22;10647;51.016;3.720;2023-07-02T10:52:55;23.40;74.60
20977;DHT22;10647;51.016;3.720;2023-07-02T10:55:24;23.10;75.50
20977;DHT22;10647;51.016;3.720;2023-07-02T10:58:06;23.10;76.70
20977;DHT22;10647;51.016;3.720;2023-07-02T11:00:43;22.20;79.10
20977;DHT22;10647;51.016;3.720;2023-07-02T11:05:54;24.60;73.40
20977;DHT22;10647;51.016;3.720;2023-07-02T11:08:21;25.40;71.20
20977;DHT22;10647;51.016;3.720;2023-07-02T11:10:50;25.90;70.20
20977;DHT22;10647;51.016;3.720;2023-07-02T11:13:20;24.70;72.20
20977;DHT22;10647;51.016;3.720;2023-07-02T11:15:48;25.60;71.10
20977;DHT22;10647;51.016;3.720;2023-07-02T11:18:22;25.90;70.40
20977;DHT22;10647;51.016;3.720;2023-07-02T11:20:49;25.60;69.80
20977;DHT22;10647;51.016;3.720;2023-07-02T11:23:18;25.90;70.00
20977;DHT22;10647;51.016;3.720;2023-07-02T11:26:00;25.50;71.20
20977;DHT22;10647;51.016;3.720;2023-07-02T11:28:30;24.60;73.10
20977;DHT22;10647;51.016;3.720;2023-07-02T11:30:59;24.30;75.50
20977;DHT22;10647;51.016;3.720;2023-07-02T11:33:35;25.00;73.60
20977;DHT22;10647;51.016;3.720;2023-07-02T11:36:03;25.00;72.40
20977;DHT22;10647;51.016;3.720;2023-07-02T11:38:35;25.60;73.00
20977;DHT22;10647;51.016;3.720;2023-07-02T11:41:03;26.40;71.90
20977;DHT22;10647;51.016;3.720;2023-07-02T11:43:37;27.10;69.30
20977;DHT22;10647;51.016;3.720;2023-07-02T11:46:07;26.60;68.30
20977;DHT22;10647;51.016;3.720;2023-07-02T11:48:34;27.10;68.40
20977;DHT22;10647;51.016;3.720;2023-07-02T11:51:04;27.90;67.30
20977;DHT22;10647;51.016;3.720;2023-07-02T11:53:34;27.80;66.80
20977;DHT22;10647;51.016;3.720;2023-07-02T11:56:03;28.10;65.10
20977;DHT22;10647;51.016;3.720;2023-07-02T11:58:33;27.60;66.60
20977;DHT22;10647;51.016;3.720;2023-07-02T12:01:01;28.30;64.60
20977;DHT22;10647;51.016;3.720;2023-07-02T12:03:29;28.60;64.40
20977;DHT22;10647;51.016;3.720;2023-07-02T12:05:57;27.60;65.00
20977;DHT22;10647;51.016;3.720;2023-07-02T12:08:25;26.60;66.40
20977;DHT22;10647;51.016;3.720;2023-07-02T12:10:52;26.50;67.40
20977;DHT22;10647;51.016;3.720;2023-07-02T12:13:20;26.20;67.00
20977;DHT22;10647;51.016;3.720;2023-07-02T12:15:48;25.70;69.20
20977;DHT22;10647;51.016;3.720;2023-07-02T12:18:17;26.90;67.10
20977;DHT22;10647;51.016;3.720;2023-07-02T12:20:46;26.60;66.40
20977;DHT22;10647;51.016;3.720;2023-07-02T12:23:13;27.00;65.10
20977;DHT22;10647;51.016;3.720;2023-07-02T12:25:43;27.80;64.40
20977;DHT22;10647;51.016;3.720;2023-07-02T12:28:10;27.20;64.00
20977;DHT22;10647;51.016;3.720;2023-07-02T12:30:38;27.20;63.50
20977;DHT22;10647;51.016;3.720;2023-07-02T12:33:05;26.20;66.10
20977;DHT22;10647;51.016;3.720;2023-07-02T12:35:34;25.20;67.70
20977;DHT22;10647;51.016;3.720;2023-07-02T12:38:01;26.00;69.20
20977;DHT22;10647;51.016;3.720;2023-07-02T12:40:33;26.40;65.10
20977;DHT22;10647;51.016;3.720;2023-07-02T12:43:00;25.50;65.30
20977;DHT22;10647;51.016;3.720;2023-07-02T12:45:28;25.20;67.90
20977;DHT22;10647;51.016;3.720;2023-07-02T12:47:55;26.40;66.80
20977;DHT22;10647;51.016;3.720;2023-07-02T12:50:23;26.20;65.10
20977;DHT22;10647;51.016;3.720;2023-07-02T12:52:50;27.10;63.70
20977;DHT22;10647;51.016;3.720;2023-07-02T12:55:18;27.40;63.90
20977;DHT22;10647;51.016;3.720;2023-07-02T12:57:45;28.20;61.50
20977;DHT22;10647;51.016;3.720;2023-07-02T13:00:13;28.70;60.00
20977;DHT22;10647;51.016;3.720;2023-07-02T13:02:42;28.20;60.30
20977;DHT22;10647;51.016;3.720;2023-07-02T13:05:09;28.70;60.90
20977;DHT22;10647;51.016;3.720;2023-07-02T13:07:37;30.00;58.50
20977;DHT22;10647;51.016;3.720;2023-07-02T13:10:05;30.10;57.10
20977;DHT22;10647;51.016;3.720;2023-07-02T13:12:32;30.50;58.00
20977;DHT22;10647;51.016;3.720;2023-07-02T13:15:00;32.20;54.10
20977;DHT22;10647;51.016;3.720;2023-07-02T13:17:29;32.50;52.10
20977;DHT22;10647;51.016;3.720;2023-07-02T13:19:57;32.90;51.80
20977;DHT22;10647;51.016;3.720;2023-07-02T13:22:26;34.10;52.10
20977;DHT22;10647;51.016;3.720;2023-07-02T13:24:54;37.30;47.80
20977;DHT22;10647;51.016;3.720;2023-07-02T13:27:21;38.20;44.30
20977;DHT22;10647;51.016;3.720;2023-07-02T13:29:49;37.60;45.50
20977;DHT22;10647;51.016;3.720;2023-07-02T13:32:16;38.90;43.40
20977;DHT22;10647;51.016;3.720;2023-07-02T13:34:45;39.00;42.30
20977;DHT22;10647;51.016;3.720;2023-07-02T13:37:12;38.10;43.30
20977;DHT22;10647;51.016;3.720;2023-07-02T13:39:41;38.00;42.00
20977;DHT22;10647;51.016;3.720;2023-07-02T13:42:09;35.60;43.80
20977;DHT22;10647;51.016;3.720;2023-07-02T13:44:37;33.90;47.10
20977;DHT22;10647;51.016;3.720;2023-07-02T13:47:04;33.60;47.10
20977;DHT22;10647;51.016;3.720;2023-07-02T13:49:32;37.40;45.10
20977;DHT22;10647;51.016;3.720;2023-07-02T13:52:00;41.50;40.40
20977;DHT22;10647;51.016;3.720;2023-07-02T13:54:28;41.20;38.20
20977;DHT22;10647;51.016;3.720;2023-07-02T13:56:56;38.40;39.80
20977;DHT22;10647;51.016;3.720;2023-07-02T13:59:24;36.00;44.30
20977;DHT22;10647;51.016;3.720;2023-07-02T14:01:51;36.70;42.80
20977;DHT22;10647;51.016;3.720;2023-07-02T14:04:19;37.00;43.20
20977;DHT22;10647;51.016;3.720;2023-07-02T14:06:46;38.40;42.50
20977;DHT22;10647;51.016;3.720;2023-07-02T14:09:17;37.20;42.00
20977;DHT22;10647;51.016;3.720;2023-07-02T14:11:45;37.40;40.20
20977;DHT22;10647;51.016;3.720;2023-07-02T14:14:12;33.40;45.40
20977;DHT22;10647;51.016;3.720;2023-07-02T14:16:40;32.20;48.30
20977;DHT22;10647;51.016;3.720;2023-07-02T14:19:07;31.60;49.10
20977;DHT22;10647;51.016;3.720;2023-07-02T14:21:35;31.20;49.60
20977;DHT22;10647;51.016;3.720;2023-07-02T14:24:03;34.50;46.40
20977;DHT22;10647;51.016;3.720;2023-07-02T14:26:32;33.40;48.30
20977;DHT22;10647;51.016;3.720;2023-07-02T14:28:59;36.60;44.50
20977;DHT22;10647;51.016;3.720;2023-07-02T14:31:27;37.10;42.00
20977;DHT22;10647;51.016;3.720;2023-07-02T14:33:55;34.20;44.40
20977;DHT22;10647;51.016;3.720;2023-07-02T14:36:22;32.50;47.10
20977;DHT22;10647;51.016;3.720;2023-07-02T14:38:50;32.90;47.60
20977;DHT22;10647;51.016;3.720;2023-07-02T14:41:18;37.40;44.80
20977;DHT22;10647;51.016;3.720;2023-07-02T14:43:46;39.30;42.10
20977;DHT22;10647;51.016;3.720;2023-07-02T14:46:15;39.00;42.30
20977;DHT22;10647;51.016;3.720;2023-07-02T14:48:43;36.90;41.50
20977;DHT22;10647;51.016;3.720;2023-07-02T14:51:12;36.40;44.10
20977;DHT22;10647;51.016;3.720;2023-07-02T14:53:39;39.70;40.70
20977;DHT22;10647;51.016;3.720;2023-07-02T14:56:10;40.30;39.20
20977;DHT22;10647;51.016;3.720;2023-07-02T14:58:37;36.50;42.40
20977;DHT22;10647;51.016;3.720;2023-07-02T15:01:05;32.60;47.70
20977;DHT22;10647;51.016;3.720;2023-07-02T15:03:38;34.00;47.50
20977;DHT22;10647;51.016;3.720;2023-07-02T15:06:13;34.70;44.70
20977;DHT22;10647;51.016;3.720;2023-07-02T15:08:39;31.60;48.80
20977;DHT22;10647;51.016;3.720;2023-07-02T15:11:09;31.40;50.40
20977;DHT22;10647;51.016;3.720;2023-07-02T15:13:38;34.50;48.00
20977;DHT22;10647;51.016;3.720;2023-07-02T15:16:09;35.90;44.70
20977;DHT22;10647;51.016;3.720;2023-07-02T15:18:37;35.60;44.40
20977;DHT22;10647;51.016;3.720;2023-07-02T15:21:05;36.10;44.80
20977;DHT22;10647;51.016;3.720;2023-07-02T15:23:33;37.90;42.30
20977;DHT22;10647;51.016;3.720;2023-07-02T15:26:06;35.10;43.90
20977;DHT22;10647;51.016;3.720;2023-07-02T15:28:34;36.20;45.20
20977;DHT22;10647;51.016;3.720;2023-07-02T15:31:06;39.20;42.20
20977;DHT22;10647;51.016;3.720;2023-07-02T15:33:34;40.90;39.60
20977;DHT22;10647;51.016;3.720;2023-07-02T15:36:04;39.30;38.80
20977;DHT22;10647;51.016;3.720;2023-07-02T15:38:32;35.60;41.80
20977;DHT22;10647;51.016;3.720;2023-07-02T15:41:11;35.10;44.90
20977;DHT22;10647;51.016;3.720;2023-07-02T15:43:40;33.40;45.00
20977;DHT22;10647;51.016;3.720;2023-07-02T15:46:09;31.20;48.40
20977;DHT22;10647;51.016;3.720;2023-07-02T15:48:39;33.20;46.70
20977;DHT22;10647;51.016;3.720;2023-07-02T15:51:08;34.00;45.30
20977;DHT22;10647;51.016;3.720;2023-07-02T15:53:38;32.40;47.60
20977;DHT22;10647;51.016;3.720;2023-07-02T15:56:06;31.00;49.90